sensor_id;sensor_type;location;lat;lon;timestamp;pressure;altitude;pressure_sealevel;temperature;humidity
55217;BME280;41086;46.736;15.666;2023-02-11T00:00:18;100525.16;;;-5.14;100.00
55217;BME280;41086;46.736;15.666;2023-02-11T00:02:45;100517.34;;;-5.17;100.00
55217;BME280;41086;46.736;15.666;2023-02-11T00:05:13;100514.81;;;-5.15;100.00
55217;BME280;41086;46.736;15.666;2023-02-11T00:07:40;100497.28;;;-5.25;100.00
55217;BME280;41086;46.736;15.666;2023-02-11T00:10:07;100524.66;;;-5.02;100.00
55217;BME280;41086;46.736;15.666;2023-02-11T00:12:35;100509.22;;;-4.97;100.00
55217;BME280;41086;46.736;15.666;2023-02-11T00:15:03;100509.38;;;-4.93;100.00
55217;BME280;41086;46.736;15.666;2023-02-11T00:17:31;100508.22;;;-5.02;100.00
55217;BME280;41086;46.736;15.666;2023-02-11T00:19:57;100512.22;;;-5.15;100.00
55217;BME280;41086;46.736;15.666;2023-02-11T00:22:24;100510.44;;;-5.18;100.00
55217;BME280;41086;46.736;15.666;2023-02-11T00:24:51;100509.50;;;-5.20;100.00
55217;BME280;41086;46.736;15.666;2023-02-11T00:27:18;100499.22;;;-5.18;100.00
55217;BME280;41086;46.736;15.666;2023-02-11T00:29:45;100503.38;;;-5.23;100.00
55217;BME280;41086;46.736;15.666;2023-02-11T00:32:12;100499.78;;;-5.28;100.00
55217;BME280;41086;46.736;15.666;2023-02-11T00:34:39;100482.28;;;-5.39;100.00
55217;BME280;41086;46.736;15.666;2023-02-11T00:37:06;100502.31;;;-5.30;100.00
55217;BME280;41086;46.736;15.666;2023-02-11T00:39:33;100510.00;;;-5.33;100.00
55217;BME280;41086;46.736;15.666;2023-02-11T00:42:02;100495.34;;;-5.34;100.00
55217;BME280;41086;46.736;15.666;2023-02-11T00:44:28;100495.75;;;-5.49;100.00
55217;BME280;41086;46.736;15.666;2023-02-11T00:46:55;100478.78;;;-5.71;100.00
55217;BME280;41086;46.736;15.666;2023-02-11T00:49:22;100491.00;;;-5.65;100.00
55217;BME280;41086;46.736;15.666;2023-02-11T00:51:50;100485.81;;;-5.67;100.00
55217;BME280;41086;46.736;15.666;2023-02-11T00:54:18;100486.69;;;-5.66;100.00
55217;BME280;41086;46.736;15.666;2023-02-11T00:56:45;100486.63;;;-5.68;100.00
55217;BME280;41086;46.736;15.666;2023-02-11T00:59:12;100482.13;;;-5.75;100.00
55217;BME280;41086;46.736;15.666;2023-02-11T01:01:39;100450.75;;;-5.87;100.00
55217;BME280;41086;46.736;15.666;2023-02-11T01:04:07;100481.22;;;-5.75;100.00
55217;BME280;41086;46.736;15.666;2023-02-11T01:06:34;100478.63;;;-5.77;100.00
55217;BME280;41086;46.736;15.666;2023-02-11T01:09:01;100465.69;;;-5.77;100.00
55217;BME280;41086;46.736;15.666;2023-02-11T01:11:28;100444.59;;;-5.92;100.00
55217;BME280;41086;46.736;15.666;2023-02-11T01:13:54;100467.22;;;-5.84;100.00
55217;BME280;41086;46.736;15.666;2023-02-11T01:16:21;100461.09;;;-5.87;100.00
55217;BME280;41086;46.736;15.666;2023-02-11T01:18:48;100458.50;;;-5.89;100.00
55217;BME280;41086;46.736;15.666;2023-02-11T01:21:16;100450.63;;;-5.92;100.00
55217;BME280;41086;46.736;15.666;2023-02-11T01:23:43;100448.88;;;-5.93;100.00
55217;BME280;41086;46.736;15.666;2023-02-11T01:26:10;100434.25;;;-5.92;100.00
55217;BME280;41086;46.736;15.666;2023-02-11T01:28:37;100426.47;;;-5.95;100.00
55217;BME280;41086;46.736;15.666;2023-02-11T01:31:04;100438.56;;;-5.93;100.00
55217;BME280;41086;46.736;15.666;2023-02-11T01:33:31;100443.44;;;-6.04;100.00
55217;BME280;41086;46.736;15.666;2023-02-11T01:36:02;100446.78;;;-6.08;100.00
55217;BME280;41086;46.736;15.666;2023-02-11T01:38:31;100433.75;;;-6.11;100.00
55217;BME280;41086;46.736;15.666;2023-02-11T01:41:05;100433.88;;;-6.08;100.00
55217;BME280;41086;46.736;15.666;2023-02-11T01:43:35;100429.66;;;-6.04;100.00
55217;BME280;41086;46.736;15.666;2023-02-11T01:46:19;100423.81;;;-5.98;100.00
55217;BME280;41086;46.736;15.666;2023-02-11T01:49:05;100428.00;;;-6.02;100.00
55217;BME280;41086;46.736;15.666;2023-02-11T01:51:36;100422.16;;;-5.96;100.00
55217;BME280;41086;46.736;15.666;2023-02-11T01:54:08;100403.28;;;-5.94;100.00
55217;BME280;41086;46.736;15.666;2023-02-11T01:56:57;100406.44;;;-6.04;100.00
55217;BME280;41086;46.736;15.666;2023-02-11T02:00:13;100404.88;;;-6.28;100.00
55217;BME280;41086;46.736;15.666;2023-02-11T02:05:37;100383.56;;;-6.51;100.00
55217;BME280;41086;46.736;15.666;2023-02-11T02:10:58;100359.88;;;-6.66;100.00
55217;BME280;41086;46.736;15.666;2023-02-11T02:13:28;100379.97;;;-6.56;100.00
55217;BME280;41086;46.736;15.666;2023-02-11T02:16:16;100372.91;;;-6.61;100.00
55217;BME280;41086;46.736;15.666;2023-02-11T02:38:55;100361.97;;;-6.81;100.00
55217;BME280;41086;46.736;15.666;2023-02-11T02:41:28;100305.03;;;-7.16;100.00
55217;BME280;41086;46.736;15.666;2023-02-11T02:43:55;100365.38;;;-6.82;100.00
55217;BME280;41086;46.736;15.666;2023-02-11T02:46:25;100367.94;;;-6.84;100.00
55217;BME280;41086;46.736;15.666;2023-02-11T02:48:54;100362.66;;;-6.87;100.00
55217;BME280;41086;46.736;15.666;2023-02-11T02:59:12;100351.25;;;-6.66;100.00
55217;BME280;41086;46.736;15.666;2023-02-11T03:07:31;100336.50;;;-6.71;100.00
55217;BME280;41086;46.736;15.666;2023-02-11T03:10:13;100344.38;;;-6.66;100.00
55217;BME280;41086;46.736;15.666;2023-02-11T03:12:43;100342.44;;;-6.73;100.00
55217;BME280;41086;46.736;15.666;2023-02-11T03:15:12;100341.78;;;-6.67;100.00
55217;BME280;41086;46.736;15.666;2023-02-11T03:17:41;100338.53;;;-6.60;100.00
55217;BME280;41086;46.736;15.666;2023-02-11T03:20:13;100336.91;;;-6.57;100.00
55217;BME280;41086;46.736;15.666;2023-02-11T03:22:47;100344.31;;;-6.69;100.00
55217;BME280;41086;46.736;15.666;2023-02-11T03:25:15;100335.94;;;-6.62;100.00
55217;BME280;41086;46.736;15.666;2023-02-11T03:28:02;100349.13;;;-6.80;100.00
55217;BME280;41086;46.736;15.666;2023-02-11T03:30:39;100346.28;;;-6.89;100.00
55217;BME280;41086;46.736;15.666;2023-02-11T03:35:57;100325.25;;;-7.01;100.00
55217;BME280;41086;46.736;15.666;2023-02-11T03:38:29;100330.50;;;-6.98;100.00
55217;BME280;41086;46.736;15.666;2023-02-11T03:40:59;100328.16;;;-6.91;100.00
55217;BME280;41086;46.736;15.666;2023-02-11T03:43:39;100330.59;;;-6.95;100.00
55217;BME280;41086;46.736;15.666;2023-02-11T03:46:08;100327.22;;;-6.94;100.00
55217;BME280;41086;46.736;15.666;2023-02-11T03:48:47;100320.28;;;-6.95;100.00
55217;BME280;41086;46.736;15.666;2023-02-11T03:51:15;100322.94;;;-6.92;100.00
55217;BME280;41086;46.736;15.666;2023-02-11T03:53:44;100314.44;;;-6.89;100.00
55217;BME280;41086;46.736;15.666;2023-02-11T03:56:19;100316.28;;;-6.85;100.00
55217;BME280;41086;46.736;15.666;2023-02-11T03:58:47;100323.97;;;-6.87;100.00
55217;BME280;41086;46.736;15.666;2023-02-11T04:01:14;100310.63;;;-7.02;100.00
55217;BME280;41086;46.736;15.666;2023-02-11T04:03:41;100315.97;;;-6.96;100.00
55217;BME280;41086;46.736;15.666;2023-02-11T04:06:08;100313.53;;;-6.92;100.00
55217;BME280;41086;46.736;15.666;2023-02-11T04:08:35;100309.41;;;-6.86;100.00
55217;BME280;41086;46.736;15.666;2023-02-11T04:11:02;100311.22;;;-6.82;100.00
55217;BME280;41086;46.736;15.666;2023-02-11T04:13:29;100303.56;;;-6.81;100.00
55217;BME280;41086;46.736;15.666;2023-02-11T04:15:55;100303.41;;;-6.85;100.00
55217;BME280;41086;46.736;15.666;2023-02-11T04:18:22;100304.28;;;-6.85;100.00
55217;BME280;41086;46.736;15.666;2023-02-11T04:20:49;100291.16;;;-6.93;100.00
55217;BME280;41086;46.736;15.666;2023-02-11T04:23:16;100299.81;;;-6.91;100.00
55217;BME280;41086;46.736;15.666;2023-02-11T04:25:43;100290.28;;;-6.93;100.00
55217;BME280;41086;46.736;15.666;2023-02-11T04:28:09;100281.88;;;-7.15;100.00
55217;BME280;41086;46.736;15.666;2023-02-11T04:30:36;100276.63;;;-7.19;100.00
55217;BME280;41086;46.736;15.666;2023-02-11T04:33:03;100273.88;;;-7.24;100.00
55217;BME280;41086;46.736;15.666;2023-02-11T04:35:30;100271.22;;;-7.27;100.00
55217;BME280;41086;46.736;15.666;2023-02-11T04:37:56;100271.94;;;-7.31;100.00
55217;BME280;41086;46.736;15.666;2023-02-11T04:40:23;100273.56;;;-7.33;100.00
55217;BME280;41086;46.736;15.666;2023-02-11T04:42:50;100245.53;;;-7.51;100.00
55217;BME280;41086;46.736;15.666;2023-02-11T04:45:17;100268.97;;;-7.43;100.00
55217;BME280;41086;46.736;15.666;2023-02-11T04:47:44;100273.03;;;-7.50;100.00
55217;BME280;41086;46.736;15.666;2023-02-11T04:50:10;100271.13;;;-7.55;100.00
55217;BME280;41086;46.736;15.666;2023-02-11T04:52:37;100270.19;;;-7.59;100.00
55217;BME280;41086;46.736;15.666;2023-02-11T04:55:04;100266.50;;;-7.66;100.00
55217;BME280;41086;46.736;15.666;2023-02-11T04:57:31;100265.06;;;-7.58;100.00
55217;BME280;41086;46.736;15.666;2023-02-11T04:59:58;100263.47;;;-7.54;100.00
55217;BME280;41086;46.736;15.666;2023-02-11T05:02:24;100264.19;;;-7.58;100.00
55217;BME280;41086;46.736;15.666;2023-02-11T05:04:51;100259.91;;;-7.58;100.00
55217;BME280;41086;46.736;15.666;2023-02-11T05:07:18;100249.31;;;-7.67;100.00
55217;BME280;41086;46.736;15.666;2023-02-11T05:09:45;100262.44;;;-7.59;100.00
55217;BME280;41086;46.736;15.666;2023-02-11T05:12:12;100246.00;;;-7.63;100.00
55217;BME280;41086;46.736;15.666;2023-02-11T05:14:38;100248.91;;;-7.53;100.00
55217;BME280;41086;46.736;15.666;2023-02-11T05:17:05;100251.50;;;-7.52;100.00
55217;BME280;41086;46.736;15.666;2023-02-11T05:19:32;100235.25;;;-7.76;100.00
55217;BME280;41086;46.736;15.666;2023-02-11T05:21:59;100252.72;;;-7.68;100.00
55217;BME280;41086;46.736;15.666;2023-02-11T05:24:31;100249.06;;;-7.74;100.00
55217;BME280;41086;46.736;15.666;2023-02-11T05:26:58;100224.56;;;-7.89;100.00
55217;BME280;41086;46.736;15.666;2023-02-11T05:29:24;100241.50;;;-7.70;100.00
55217;BME280;41086;46.736;15.666;2023-02-11T05:31:51;100237.03;;;-7.75;100.00
55217;BME280;41086;46.736;15.666;2023-02-11T05:34:18;100250.94;;;-7.70;100.00
55217;BME280;41086;46.736;15.666;2023-02-11T05:36:45;100239.84;;;-7.68;100.00
55217;BME280;41086;46.736;15.666;2023-02-11T05:39:13;100239.13;;;-7.64;100.00
55217;BME280;41086;46.736;15.666;2023-02-11T05:41:39;100242.63;;;-7.62;100.00
55217;BME280;41086;46.736;15.666;2023-02-11T05:44:06;100243.91;;;-7.74;100.00
55217;BME280;41086;46.736;15.666;2023-02-11T05:46:33;100248.09;;;-7.78;100.00
55217;BME280;41086;46.736;15.666;2023-02-11T05:49:00;100230.59;;;-7.88;100.00
55217;BME280;41086;46.736;15.666;2023-02-11T05:51:27;100247.78;;;-7.87;100.00
55217;BME280;41086;46.736;15.666;2023-02-11T05:53:54;100229.56;;;-7.93;100.00
55217;BME280;41086;46.736;15.666;2023-02-11T05:56:21;100236.88;;;-7.80;100.00
55217;BME280;41086;46.736;15.666;2023-02-11T05:58:48;100240.75;;;-7.66;100.00
55217;BME280;41086;46.736;15.666;2023-02-11T06:01:14;100238.28;;;-7.63;100.00
55217;BME280;41086;46.736;15.666;2023-02-11T06:03:41;100179.03;;;-7.91;100.00
55217;BME280;41086;46.736;15.666;2023-02-11T06:06:10;100235.19;;;-7.52;100.00
55217;BME280;41086;46.736;15.666;2023-02-11T06:08:37;100246.06;;;-7.61;100.00
55217;BME280;41086;46.736;15.666;2023-02-11T06:11:04;100246.50;;;-7.74;100.00
55217;BME280;41086;46.736;15.666;2023-02-11T06:13:31;100241.25;;;-7.77;100.00
55217;BME280;41086;46.736;15.666;2023-02-11T06:15:59;100228.97;;;-7.59;100.00
55217;BME280;41086;46.736;15.666;2023-02-11T06:18:26;100223.56;;;-7.67;100.00
55217;BME280;41086;46.736;15.666;2023-02-11T06:20:53;100241.53;;;-7.68;100.00
55217;BME280;41086;46.736;15.666;2023-02-11T06:23:21;100213.00;;;-7.76;100.00
55217;BME280;41086;46.736;15.666;2023-02-11T06:25:48;100230.78;;;-7.56;100.00
55217;BME280;41086;46.736;15.666;2023-02-11T06:28:15;100227.47;;;-7.52;100.00
55217;BME280;41086;46.736;15.666;2023-02-11T06:30:42;100233.59;;;-7.49;100.00
55217;BME280;41086;46.736;15.666;2023-02-11T06:33:09;100235.34;;;-7.48;100.00
55217;BME280;41086;46.736;15.666;2023-02-11T06:35:39;100229.44;;;-7.44;100.00
55217;BME280;41086;46.736;15.666;2023-02-11T06:38:05;100218.44;;;-7.40;100.00
55217;BME280;41086;46.736;15.666;2023-02-11T06:40:32;100221.47;;;-7.24;100.00
55217;BME280;41086;46.736;15.666;2023-02-11T06:42:59;100218.38;;;-7.13;100.00
55217;BME280;41086;46.736;15.666;2023-02-11T06:45:26;100200.44;;;-7.09;100.00
55217;BME280;41086;46.736;15.666;2023-02-11T06:47:53;100213.19;;;-6.85;100.00
55217;BME280;41086;46.736;15.666;2023-02-11T06:50:20;100213.47;;;-6.75;100.00
55217;BME280;41086;46.736;15.666;2023-02-11T06:52:47;100192.50;;;-6.87;100.00
55217;BME280;41086;46.736;15.666;2023-02-11T06:55:15;100165.69;;;-6.92;100.00
55217;BME280;41086;46.736;15.666;2023-02-11T06:57:42;100204.78;;;-6.47;100.00
55217;BME280;41086;46.736;15.666;2023-02-11T07:00:09;100200.91;;;-6.32;100.00
55217;BME280;41086;46.736;15.666;2023-02-11T07:02:36;100210.09;;;-6.10;100.00
55217;BME280;41086;46.736;15.666;2023-02-11T07:05:05;100212.97;;;-5.98;100.00
55217;BME280;41086;46.736;15.666;2023-02-11T07:07:36;100212.25;;;-5.91;100.00
55217;BME280;41086;46.736;15.666;2023-02-11T07:10:03;100217.91;;;-6.07;100.00
55217;BME280;41086;46.736;15.666;2023-02-11T07:12:31;100212.38;;;-5.86;100.00
55217;BME280;41086;46.736;15.666;2023-02-11T07:14:58;100203.88;;;-5.82;100.00
55217;BME280;41086;46.736;15.666;2023-02-11T07:17:25;100219.56;;;-5.73;100.00
55217;BME280;41086;46.736;15.666;2023-02-11T07:19:51;100215.78;;;-5.52;100.00
55217;BME280;41086;46.736;15.666;2023-02-11T07:22:20;100209.16;;;-5.41;100.00
55217;BME280;41086;46.736;15.666;2023-02-11T07:24:46;100239.00;;;-5.16;100.00
55217;BME280;41086;46.736;15.666;2023-02-11T07:27:13;100238.56;;;-4.98;100.00
55217;BME280;41086;46.736;15.666;2023-02-11T07:29:41;100246.91;;;-5.10;100.00
55217;BME280;41086;46.736;15.666;2023-02-11T07:32:08;100235.28;;;-4.91;100.00
55217;BME280;41086;46.736;15.666;2023-02-11T07:34:35;100245.50;;;-4.96;100.00
55217;BME280;41086;46.736;15.666;2023-02-11T07:37:02;100241.56;;;-4.78;100.00
55217;BME280;41086;46.736;15.666;2023-02-11T07:39:29;100241.19;;;-4.54;100.00
55217;BME280;41086;46.736;15.666;2023-02-11T07:41:56;100232.28;;;-4.25;100.00
55217;BME280;41086;46.736;15.666;2023-02-11T07:44:24;100240.28;;;-3.64;100.00
55217;BME280;41086;46.736;15.666;2023-02-11T07:46:51;100249.72;;;-3.13;100.00
55217;BME280;41086;46.736;15.666;2023-02-11T07:49:18;100245.97;;;-2.72;100.00
55217;BME280;41086;46.736;15.666;2023-02-11T07:51:45;100267.22;;;-3.01;100.00
55217;BME280;41086;46.736;15.666;2023-02-11T07:54:12;100276.09;;;-3.40;100.00
55217;BME280;41086;46.736;15.666;2023-02-11T07:56:39;100283.91;;;-3.38;100.00
55217;BME280;41086;46.736;15.666;2023-02-11T07:59:06;100270.44;;;-3.69;100.00
55217;BME280;41086;46.736;15.666;2023-02-11T08:01:33;100277.69;;;-3.98;100.00
55217;BME280;41086;46.736;15.666;2023-02-11T08:04:01;100265.28;;;-4.14;100.00
55217;BME280;41086;46.736;15.666;2023-02-11T08:06:30;100267.72;;;-4.22;100.00
55217;BME280;41086;46.736;15.666;2023-02-11T08:09:03;100275.38;;;-4.28;100.00
55217;BME280;41086;46.736;15.666;2023-02-11T08:11:31;100254.97;;;-4.11;100.00
55217;BME280;41086;46.736;15.666;2023-02-11T08:13:58;100258.66;;;-4.00;100.00
55217;BME280;41086;46.736;15.666;2023-02-11T08:16:33;100258.72;;;-3.95;100.00
55217;BME280;41086;46.736;15.666;2023-02-11T08:19:05;100258.50;;;-3.59;100.00
55217;BME280;41086;46.736;15.666;2023-02-11T08:21:33;100235.44;;;-3.42;100.00
55217;BME280;41086;46.736;15.666;2023-02-11T08:24:01;100250.81;;;-3.53;100.00
55217;BME280;41086;46.736;15.666;2023-02-11T08:26:32;100256.56;;;-3.19;100.00
55217;BME280;41086;46.736;15.666;2023-02-11T08:29:07;100259.72;;;-2.78;100.00
55217;BME280;41086;46.736;15.666;2023-02-11T08:31:37;100263.19;;;-2.79;100.00
55217;BME280;41086;46.736;15.666;2023-02-11T08:34:06;100264.28;;;-2.63;100.00
55217;BME280;41086;46.736;15.666;2023-02-11T08:36:35;100258.28;;;-2.56;100.00
55217;BME280;41086;46.736;15.666;2023-02-11T08:39:09;100264.41;;;-2.51;100.00
55217;BME280;41086;46.736;15.666;2023-02-11T08:41:51;100248.84;;;-2.51;100.00
55217;BME280;41086;46.736;15.666;2023-02-11T08:44:19;100255.09;;;-2.35;100.00
55217;BME280;41086;46.736;15.666;2023-02-11T08:46:48;100242.13;;;-2.33;100.00
55217;BME280;41086;46.736;15.666;2023-02-11T08:49:24;100240.44;;;-2.28;100.00
55217;BME280;41086;46.736;15.666;2023-02-11T08:51:51;100252.69;;;-2.19;100.00
55217;BME280;41086;46.736;15.666;2023-02-11T08:54:25;100252.75;;;-2.13;100.00
55217;BME280;41086;46.736;15.666;2023-02-11T08:56:51;100250.97;;;-2.16;100.00
55217;BME280;41086;46.736;15.666;2023-02-11T08:59:18;100261.50;;;-2.05;100.00
55217;BME280;41086;46.736;15.666;2023-02-11T09:01:45;100258.16;;;-1.92;100.00
55217;BME280;41086;46.736;15.666;2023-02-11T09:04:13;100253.97;;;-1.77;100.00
55217;BME280;41086;46.736;15.666;2023-02-11T09:06:40;100261.16;;;-1.52;100.00
55217;BME280;41086;46.736;15.666;2023-02-11T09:09:10;100257.06;;;-1.19;100.00
55217;BME280;41086;46.736;15.666;2023-02-11T09:11:49;100262.34;;;-1.07;100.00
55217;BME280;41086;46.736;15.666;2023-02-11T09:14:19;100259.84;;;-0.90;100.00
55217;BME280;41086;46.736;15.666;2023-02-11T09:16:47;100265.09;;;-0.88;100.00
55217;BME280;41086;46.736;15.666;2023-02-11T09:19:14;100260.81;;;-0.74;100.00
55217;BME280;41086;46.736;15.666;2023-02-11T09:21:41;100257.25;;;-0.90;100.00
55217;BME280;41086;46.736;15.666;2023-02-11T09:24:08;100246.81;;;-0.93;100.00
55217;BME280;41086;46.736;15.666;2023-02-11T09:26:37;100248.44;;;-1.12;100.00
55217;BME280;41086;46.736;15.666;2023-02-11T09:29:04;100238.91;;;-1.13;100.00
55217;BME280;41086;46.736;15.666;2023-02-11T09:31:32;100239.00;;;-0.98;100.00
55217;BME280;41086;46.736;15.666;2023-02-11T09:34:02;100229.50;;;-0.90;100.00
55217;BME280;41086;46.736;15.666;2023-02-11T09:36:35;100231.88;;;-1.23;100.00
55217;BME280;41086;46.736;15.666;2023-02-11T09:39:04;100231.91;;;-1.17;100.00
55217;BME280;41086;46.736;15.666;2023-02-11T09:41:53;100245.09;;;-0.93;100.00
55217;BME280;41086;46.736;15.666;2023-02-11T09:44:27;100245.28;;;-0.62;100.00
55217;BME280;41086;46.736;15.666;2023-02-11T09:47:32;100240.97;;;-0.51;100.00
55217;BME280;41086;46.736;15.666;2023-02-11T09:50:06;100238.25;;;-0.71;100.00
55217;BME280;41086;46.736;15.666;2023-02-11T09:52:45;100236.56;;;-0.65;100.00
55217;BME280;41086;46.736;15.666;2023-02-11T09:55:29;100220.16;;;-0.45;100.00
55217;BME280;41086;46.736;15.666;2023-02-11T09:57:56;100215.69;;;-0.72;100.00
55217;BME280;41086;46.736;15.666;2023-02-11T10:00:27;100223.56;;;-0.64;100.00
55217;BME280;41086;46.736;15.666;2023-02-11T10:03:08;100223.63;;;-0.49;100.00
55217;BME280;41086;46.736;15.666;2023-02-11T10:11:03;100214.22;;;0.07;100.00
55217;BME280;41086;46.736;15.666;2023-02-11T10:13:43;100207.28;;;0.20;100.00
55217;BME280;41086;46.736;15.666;2023-02-11T10:24:17;100208.97;;;1.04;100.00
55217;BME280;41086;46.736;15.666;2023-02-11T10:26:44;100191.47;;;1.33;97.18
55217;BME280;41086;46.736;15.666;2023-02-11T10:31:45;100184.63;;;2.50;97.32
55217;BME280;41086;46.736;15.666;2023-02-11T10:34:13;100188.16;;;2.47;88.47
55217;BME280;41086;46.736;15.666;2023-02-11T10:36:42;100177.09;;;2.08;93.15
55217;BME280;41086;46.736;15.666;2023-02-11T10:41:44;100138.44;;;2.47;96.10
55217;BME280;41086;46.736;15.666;2023-02-11T10:44:28;100137.94;;;2.96;87.08
55217;BME280;41086;46.736;15.666;2023-02-11T10:46:58;100141.09;;;3.23;84.73
55217;BME280;41086;46.736;15.666;2023-02-11T10:49:38;100133.03;;;3.38;80.35
55217;BME280;41086;46.736;15.666;2023-02-11T10:52:23;100120.78;;;3.40;78.28
55217;BME280;41086;46.736;15.666;2023-02-11T10:57:49;100127.09;;;3.87;75.04
55217;BME280;41086;46.736;15.666;2023-02-11T11:02:43;100108.72;;;4.43;72.23
55217;BME280;41086;46.736;15.666;2023-02-11T11:05:28;100108.53;;;4.99;70.81
55217;BME280;41086;46.736;15.666;2023-02-11T11:07:58;100116.03;;;5.19;66.83
55217;BME280;41086;46.736;15.666;2023-02-11T11:10:43;100101.50;;;5.01;67.47
55217;BME280;41086;46.736;15.666;2023-02-11T11:13:39;100114.78;;;4.93;68.90
55217;BME280;41086;46.736;15.666;2023-02-11T11:18:45;100106.56;;;4.63;67.37
55217;BME280;41086;46.736;15.666;2023-02-11T11:21:24;100106.72;;;4.56;70.22
55217;BME280;41086;46.736;15.666;2023-02-11T11:23:54;100097.63;;;4.74;72.84
55217;BME280;41086;46.736;15.666;2023-02-11T11:26:23;100090.16;;;5.39;68.65
55217;BME280;41086;46.736;15.666;2023-02-11T11:31:23;100068.84;;;6.26;64.59
55217;BME280;41086;46.736;15.666;2023-02-11T11:33:54;100074.13;;;7.21;55.67
55217;BME280;41086;46.736;15.666;2023-02-11T11:36:31;100054.88;;;7.47;55.71
55217;BME280;41086;46.736;15.666;2023-02-11T11:39:02;100076.16;;;7.97;54.67
55217;BME280;41086;46.736;15.666;2023-02-11T11:41:32;100070.06;;;7.69;52.41
55217;BME280;41086;46.736;15.666;2023-02-11T11:44:37;100075.25;;;7.70;50.61
55217;BME280;41086;46.736;15.666;2023-02-11T11:47:18;100052.28;;;7.16;47.99
55217;BME280;41086;46.736;15.666;2023-02-11T11:52:47;100038.44;;;6.80;50.80
55217;BME280;41086;46.736;15.666;2023-02-11T11:55:19;100042.94;;;6.76;51.16
55217;BME280;41086;46.736;15.666;2023-02-11T11:57:48;100020.94;;;6.46;53.31
55217;BME280;41086;46.736;15.666;2023-02-11T12:00:20;100034.19;;;6.09;54.97
55217;BME280;41086;46.736;15.666;2023-02-11T12:05:41;100033.38;;;6.72;53.62
55217;BME280;41086;46.736;15.666;2023-02-11T12:08:18;100025.69;;;7.24;54.48
55217;BME280;41086;46.736;15.666;2023-02-11T12:13:48;100011.28;;;8.67;45.01
55217;BME280;41086;46.736;15.666;2023-02-11T12:21:31;100000.41;;;10.51;44.97
55217;BME280;41086;46.736;15.666;2023-02-11T12:40:41;100000.69;;;11.41;38.17
55217;BME280;41086;46.736;15.666;2023-02-11T12:59:14;99948.31;;;10.50;39.47
55217;BME280;41086;46.736;15.666;2023-02-11T13:01:43;99949.28;;;10.68;38.99
55217;BME280;41086;46.736;15.666;2023-02-11T13:04:18;99922.59;;;11.08;38.56
55217;BME280;41086;46.736;15.666;2023-02-11T13:06:51;99919.97;;;10.71;38.18
55217;BME280;41086;46.736;15.666;2023-02-11T13:09:24;99902.59;;;10.63;39.41
55217;BME280;41086;46.736;15.666;2023-02-11T13:11:54;99902.97;;;10.94;40.15
55217;BME280;41086;46.736;15.666;2023-02-11T13:14:30;99909.50;;;10.68;38.41
55217;BME280;41086;46.736;15.666;2023-02-11T13:17:03;99900.69;;;10.67;39.56
55217;BME280;41086;46.736;15.666;2023-02-11T13:19:43;99894.38;;;10.89;39.22
55217;BME280;41086;46.736;15.666;2023-02-11T13:22:21;99893.69;;;11.21;38.88
55217;BME280;41086;46.736;15.666;2023-02-11T13:24:54;99896.75;;;10.95;39.72
55217;BME280;41086;46.736;15.666;2023-02-11T13:27:59;99891.16;;;10.24;39.87
55217;BME280;41086;46.736;15.666;2023-02-11T13:30:31;99890.66;;;9.74;40.75
55217;BME280;41086;46.736;15.666;2023-02-11T13:33:01;99893.84;;;9.83;42.52
55217;BME280;41086;46.736;15.666;2023-02-11T13:35:37;99899.53;;;9.94;41.18
55217;BME280;41086;46.736;15.666;2023-02-11T13:38:22;99898.50;;;10.17;40.74
55217;BME280;41086;46.736;15.666;2023-02-11T13:41:14;99899.19;;;10.61;40.50
55217;BME280;41086;46.736;15.666;2023-02-11T13:43:42;99894.28;;;10.90;39.90
55217;BME280;41086;46.736;15.666;2023-02-11T13:46:11;99863.22;;;11.11;39.93
55217;BME280;41086;46.736;15.666;2023-02-11T13:48:49;99873.91;;;11.46;39.87
55217;BME280;41086;46.736;15.666;2023-02-11T13:51:34;99882.56;;;11.49;38.29
55217;BME280;41086;46.736;15.666;2023-02-11T13:54:02;99894.13;;;11.83;39.86
55217;BME280;41086;46.736;15.666;2023-02-11T13:56:35;99882.44;;;11.87;38.32
55217;BME280;41086;46.736;15.666;2023-02-11T14:08:22;99879.34;;;10.51;40.25
55217;BME280;41086;46.736;15.666;2023-02-11T14:14:17;99870.44;;;9.51;39.99
55217;BME280;41086;46.736;15.666;2023-02-11T14:19:45;99880.56;;;8.98;43.02
55217;BME280;41086;46.736;15.666;2023-02-11T14:22:39;99889.59;;;8.70;41.10
55217;BME280;41086;46.736;15.666;2023-02-11T14:25:30;99847.88;;;8.31;42.38
55217;BME280;41086;46.736;15.666;2023-02-11T14:28:36;99873.94;;;8.42;42.52
55217;BME280;41086;46.736;15.666;2023-02-11T14:31:11;99885.56;;;8.36;42.97
55217;BME280;41086;46.736;15.666;2023-02-11T14:34:02;99882.25;;;8.30;42.54
55217;BME280;41086;46.736;15.666;2023-02-11T14:42:19;99881.91;;;8.15;45.32
55217;BME280;41086;46.736;15.666;2023-02-11T14:44:49;99892.59;;;8.12;46.81
55217;BME280;41086;46.736;15.666;2023-02-11T14:47:21;99906.06;;;8.05;46.21
55217;BME280;41086;46.736;15.666;2023-02-11T14:49:49;99903.69;;;7.97;47.75
55217;BME280;41086;46.736;15.666;2023-02-11T14:54:48;99893.88;;;7.75;48.79
55217;BME280;41086;46.736;15.666;2023-02-11T14:57:17;99890.66;;;7.67;47.03
55217;BME280;41086;46.736;15.666;2023-02-11T15:02:31;99870.16;;;7.49;46.71
55217;BME280;41086;46.736;15.666;2023-02-11T15:05:19;99872.91;;;7.46;46.65
55217;BME280;41086;46.736;15.666;2023-02-11T15:07:49;99884.31;;;7.46;47.15
55217;BME280;41086;46.736;15.666;2023-02-11T15:10:46;99875.72;;;7.41;47.58
55217;BME280;41086;46.736;15.666;2023-02-11T15:13:23;99881.06;;;7.38;47.48
55217;BME280;41086;46.736;15.666;2023-02-11T15:16:04;99872.75;;;7.24;48.08
55217;BME280;41086;46.736;15.666;2023-02-11T15:18:44;99879.53;;;7.04;51.59